Time;durP1;ratioP1;P1;durP2;ratioP2;P2;SDS_P1;SDS_P2;PMS_P1;PMS_P2;Temp;Humidity;BMP_temperature;BMP_pressure;BME280_temperature;BME280_humidity;BME280_pressure;Samples;Min_cycle;Max_cycle;Signal;HPM_P1;HPM_P2
2022/03/05 00:00:25;;;;;;;14.47;7.73;;;0.00;99.90;;;;;;8341662;28;20230;-64
2022/03/05 00:04:26;;;;;;;16.87;8.57;;;0.00;99.90;;;;;;8347967;28;20273;-65
2022/03/05 00:08:28;;;;;;;13.17;8.40;;;0.00;99.90;;;;;;8347255;28;20203;-64
2022/03/05 00:12:29;;;;;;;13.33;8.27;;;-0.10;99.90;;;;;;8347973;28;20205;-65
2022/03/05 00:16:30;;;;;;;12.10;7.37;;;-0.10;99.90;;;;;;8346628;28;20264;-65
2022/03/05 00:20:31;;;;;;;16.73;8.37;;;0.00;99.90;;;;;;8346382;28;20222;-65
2022/03/05 00:24:32;;;;;;;9.60;7.10;;;0.00;99.90;;;;;;8339635;28;20254;-65
2022/03/05 00:28:33;;;;;;;15.23;8.17;;;0.00;99.90;;;;;;8337212;28;20206;-65
2022/03/05 00:32:34;;;;;;;14.63;8.37;;;0.00;99.90;;;;;;8345315;28;20207;-65
2022/03/05 00:36:35;;;;;;;13.83;8.40;;;0.00;99.90;;;;;;8345594;28;20235;-64
2022/03/05 00:40:36;;;;;;;14.60;8.37;;;0.00;99.90;;;;;;8345211;28;20316;-65
2022/03/05 00:44:37;;;;;;;18.77;9.30;;;0.00;99.90;;;;;;8345556;28;20208;-65
2022/03/05 00:48:38;;;;;;;16.53;8.20;;;0.00;99.90;;;;;;8362994;28;20209;-65
2022/03/05 00:52:39;;;;;;;12.30;8.17;;;0.00;99.90;;;;;;8363316;28;20575;-65
2022/03/05 00:56:40;;;;;;;12.53;7.43;;;0.00;99.90;;;;;;8344114;28;20212;-65
2022/03/05 01:00:41;;;;;;;15.63;9.07;;;-0.10;99.90;;;;;;8334862;28;20225;-65
2022/03/05 01:04:42;;;;;;;20.17;8.50;;;-0.10;99.90;;;;;;8342806;28;20203;-65
2022/03/05 01:08:43;;;;;;;27.00;10.93;;;-0.10;99.90;;;;;;8343956;28;20239;-65
2022/03/05 01:12:44;;;;;;;23.40;10.53;;;-0.10;99.90;;;;;;8347512;28;20198;-65
2022/03/05 01:16:45;;;;;;;18.33;8.67;;;-0.10;99.90;;;;;;8363295;28;20209;-65
2022/03/05 01:20:46;;;;;;;12.23;7.73;;;-0.10;99.90;;;;;;8325288;28;20254;-65
2022/03/05 01:24:47;;;;;;;13.63;7.90;;;-0.10;99.90;;;;;;8340345;28;20283;-65
2022/03/05 01:28:48;;;;;;;16.97;9.27;;;-0.20;99.90;;;;;;8350643;28;20221;-65
2022/03/05 01:32:49;;;;;;;18.30;8.90;;;-0.20;99.90;;;;;;8342849;28;20218;-65
2022/03/05 01:36:50;;;;;;;21.30;9.67;;;-0.20;99.90;;;;;;8343980;28;20212;-65
2022/03/05 01:40:51;;;;;;;16.10;8.20;;;-0.20;99.90;;;;;;8339445;28;20227;-65
2022/03/05 01:44:52;;;;;;;14.83;7.87;;;-0.20;99.90;;;;;;8343940;28;20235;-65
2022/03/05 01:48:53;;;;;;;14.97;7.90;;;-0.20;99.90;;;;;;8342008;28;20218;-65
2022/03/05 01:52:55;;;;;;;17.93;9.03;;;-0.20;99.90;;;;;;8348668;28;20208;-65
2022/03/05 01:56:57;;;;;;;15.17;8.10;;;-0.20;99.90;;;;;;8348157;28;20211;-65
2022/03/05 02:00:58;;;;;;;17.13;8.07;;;-0.20;99.90;;;;;;8349091;28;20343;-65
2022/03/05 02:04:59;;;;;;;14.87;7.87;;;-0.20;99.90;;;;;;8349232;28;20302;-65
2022/03/05 02:09:00;;;;;;;13.70;8.33;;;-0.20;99.90;;;;;;8349100;28;20269;-64
2022/03/05 02:13:01;;;;;;;14.27;7.90;;;-0.30;99.90;;;;;;8345510;28;20205;-65
2022/03/05 02:17:02;;;;;;;13.43;7.87;;;-0.30;99.90;;;;;;8384857;28;20214;-65
2022/03/05 02:21:04;;;;;;;11.13;6.93;;;-0.30;99.90;;;;;;8368024;28;20298;-66
2022/03/05 02:25:05;;;;;;;15.70;8.00;;;-0.30;99.90;;;;;;8349709;28;20205;-66
2022/03/05 02:29:06;;;;;;;12.07;7.20;;;-0.30;99.90;;;;;;8367599;28;20196;-66
2022/03/05 02:33:07;;;;;;;11.77;7.63;;;-0.40;99.90;;;;;;8348077;28;20207;-65
2022/03/05 02:37:13;;;;;;;15.10;7.20;;;-0.30;99.90;;;;;;8345347;28;20288;-66
2022/03/05 02:41:14;;;;;;;12.47;7.27;;;-0.30;99.90;;;;;;8348619;28;20232;-66
2022/03/05 02:45:15;;;;;;;10.23;6.73;;;-0.40;99.90;;;;;;8348094;28;20200;-66
2022/03/05 02:49:16;;;;;;;12.80;7.23;;;-0.40;99.90;;;;;;8348684;28;20204;-66
2022/03/05 02:53:17;;;;;;;14.73;7.90;;;-0.40;99.90;;;;;;8348325;28;20211;-66
2022/03/05 02:57:19;;;;;;;12.43;7.50;;;-0.40;99.90;;;;;;8348139;28;20638;-66
2022/03/05 03:01:20;;;;;;;13.80;7.63;;;-0.50;99.90;;;;;;8346211;28;20227;-66
2022/03/05 03:05:21;;;;;;;13.47;7.77;;;-0.50;99.90;;;;;;8346225;28;20212;-65
2022/03/05 03:09:23;;;;;;;13.70;7.67;;;-0.60;99.90;;;;;;8347218;28;20214;-66
2022/03/05 03:13:24;;;;;;;15.80;7.10;;;-0.60;99.90;;;;;;8345790;28;20222;-66
2022/03/05 03:17:25;;;;;;;12.33;6.87;;;-0.70;99.90;;;;;;8346984;28;20205;-66
2022/03/05 03:21:26;;;;;;;11.23;7.63;;;-0.80;99.90;;;;;;8345292;28;20258;-66
2022/03/05 03:25:26;;;;;;;11.23;7.40;;;-0.80;99.90;;;;;;8346241;28;20200;-66
2022/03/05 03:29:28;;;;;;;14.30;7.63;;;-0.80;99.90;;;;;;8345763;28;20239;-66
2022/03/05 03:33:28;;;;;;;13.03;6.97;;;-0.80;99.90;;;;;;8344780;28;20214;-66
2022/03/05 03:37:31;;;;;;;15.60;7.43;;;-0.80;99.90;;;;;;8345999;28;20212;-66
2022/03/05 03:41:31;;;;;;;13.20;7.63;;;-0.80;99.90;;;;;;8363271;28;20234;-67
2022/03/05 03:45:32;;;;;;;16.10;8.03;;;-0.80;99.90;;;;;;8363379;28;20231;-66
2022/03/05 03:49:33;;;;;;;11.83;7.40;;;-0.70;99.90;;;;;;8344946;28;20204;-66
2022/03/05 03:53:34;;;;;;;11.87;7.50;;;-0.70;99.90;;;;;;8345642;28;20213;-66
2022/03/05 03:57:35;;;;;;;9.77;6.37;;;-0.60;99.90;;;;;;8346074;28;20216;-66
2022/03/05 04:01:36;;;;;;;11.50;7.30;;;-0.60;99.90;;;;;;8342678;28;20231;-67
2022/03/05 04:05:36;;;;;;;11.70;7.33;;;-0.60;99.90;;;;;;8344787;28;20258;-67
2022/03/05 04:09:37;;;;;;;12.30;7.30;;;-0.50;99.90;;;;;;8344857;28;20219;-66
2022/03/05 04:13:38;;;;;;;15.70;7.67;;;-0.50;99.90;;;;;;8344550;28;20317;-64
2022/03/05 04:17:39;;;;;;;13.63;8.03;;;-0.50;99.90;;;;;;8343900;28;20211;-64
2022/03/05 04:21:40;;;;;;;15.93;8.47;;;-0.50;99.90;;;;;;8344318;28;20229;-64
2022/03/05 04:25:41;;;;;;;12.40;7.67;;;-0.40;99.90;;;;;;8343923;28;20216;-64
2022/03/05 04:29:42;;;;;;;15.23;8.43;;;-0.50;99.90;;;;;;8361556;28;20240;-64
2022/03/05 04:33:43;;;;;;;15.63;8.03;;;-0.50;99.90;;;;;;8344177;28;20298;-64
2022/03/05 04:37:43;;;;;;;12.27;7.43;;;-0.40;99.90;;;;;;8343621;28;20293;-64
2022/03/05 04:41:44;;;;;;;12.67;8.57;;;-0.40;99.90;;;;;;8344404;28;20239;-67
2022/03/05 04:45:45;;;;;;;16.73;8.90;;;-0.40;99.90;;;;;;8343853;28;20203;-66
2022/03/05 04:49:46;;;;;;;12.67;8.17;;;-0.40;99.90;;;;;;8344140;28;20290;-67
2022/03/05 04:53:47;;;;;;;17.10;8.97;;;-0.40;99.90;;;;;;8354880;28;20199;-67
2022/03/05 04:57:47;;;;;;;16.30;7.93;;;-0.40;99.90;;;;;;8362042;28;20231;-67
2022/03/05 05:01:48;;;;;;;12.50;7.77;;;-0.60;99.90;;;;;;8343173;28;20221;-64
2022/03/05 05:05:49;;;;;;;19.60;9.90;;;-0.60;99.90;;;;;;8343873;28;20203;-64
2022/03/05 05:09:50;;;;;;;15.77;9.17;;;-0.70;99.90;;;;;;8341903;28;20279;-64
2022/03/05 05:13:51;;;;;;;14.80;8.70;;;-0.80;99.90;;;;;;8343621;28;20349;-65
2022/03/05 05:17:51;;;;;;;18.67;9.50;;;-0.90;99.90;;;;;;8343907;28;20557;-65
2022/03/05 05:22:00;;;;;;;20.07;9.50;;;-0.90;99.90;;;;;;8360981;28;20219;-64
2022/03/05 05:26:01;;;;;;;15.27;8.33;;;-1.00;99.90;;;;;;8343377;28;20209;-65
2022/03/05 05:30:02;;;;;;;14.73;8.90;;;-1.00;99.90;;;;;;8343558;28;20293;-65
2022/03/05 05:34:03;;;;;;;14.20;8.93;;;-1.10;99.90;;;;;;8343713;28;20202;-65
2022/03/05 05:38:03;;;;;;;16.50;8.80;;;-1.20;99.90;;;;;;8345198;28;20204;-64
2022/03/05 05:42:04;;;;;;;16.60;8.73;;;-1.30;99.90;;;;;;8337466;28;20225;-64
2022/03/05 05:46:06;;;;;;;15.83;8.97;;;-1.30;99.90;;;;;;8344323;28;20194;-65
2022/03/05 05:50:08;;;;;;;20.47;9.83;;;-1.30;99.90;;;;;;8360677;28;20283;-65
2022/03/05 05:54:09;;;;;;;19.47;9.47;;;-1.40;99.90;;;;;;8361491;28;20199;-65
2022/03/05 05:58:10;;;;;;;16.07;8.80;;;-1.50;99.90;;;;;;8344292;28;20201;-64
2022/03/05 06:02:11;;;;;;;13.63;8.57;;;-1.60;99.90;;;;;;8361991;28;20253;-65
2022/03/05 06:06:12;;;;;;;17.07;7.83;;;-1.70;99.90;;;;;;8362282;28;20213;-65
2022/03/05 06:10:13;;;;;;;15.30;8.97;;;-1.80;99.90;;;;;;8343872;28;20221;-65
2022/03/05 06:14:14;;;;;;;14.40;7.77;;;-1.90;99.90;;;;;;8344152;28;20288;-65
2022/03/05 06:18:15;;;;;;;14.10;8.70;;;-1.90;99.90;;;;;;8343336;28;20194;-66
2022/03/05 06:22:16;;;;;;;14.13;7.87;;;-1.90;99.90;;;;;;8344754;28;20222;-65
2022/03/05 06:26:17;;;;;;;15.30;8.57;;;-1.80;99.90;;;;;;8361969;28;20195;-65
2022/03/05 06:30:17;;;;;;;16.10;9.27;;;-1.70;99.90;;;;;;8344015;28;20204;-65
2022/03/05 06:34:18;;;;;;;14.57;9.13;;;-1.50;99.90;;;;;;8344026;28;20268;-66
2022/03/05 06:38:20;;;;;;;16.17;8.73;;;-1.40;99.90;;;;;;8345922;28;20288;-65
2022/03/05 06:42:21;;;;;;;16.93;10.20;;;-1.20;99.90;;;;;;8349445;28;20225;-65
2022/03/05 06:46:22;;;;;;;20.30;9.90;;;-1.00;99.90;;;;;;8341105;28;20209;-65
2022/03/05 06:50:23;;;;;;;21.50;11.80;;;-0.70;99.90;;;;;;8348684;28;20199;-66
2022/03/05 06:54:24;;;;;;;16.10;10.70;;;-0.60;99.90;;;;;;8366454;28;20208;-66
2022/03/05 06:58:25;;;;;;;21.73;12.47;;;-0.40;99.90;;;;;;8348161;28;20234;-65
2022/03/05 07:02:26;;;;;;;18.30;10.27;;;-0.20;99.90;;;;;;8346888;28;20220;-65
2022/03/05 07:06:27;;;;;;;20.17;11.20;;;0.00;99.90;;;;;;8347659;28;20228;-66
2022/03/05 07:10:28;;;;;;;23.73;12.40;;;0.40;99.90;;;;;;8347561;28;20197;-65
2022/03/05 07:14:29;;;;;;;19.90;12.93;;;0.60;99.90;;;;;;8337852;28;20198;-65
2022/03/05 07:18:30;;;;;;;16.83;11.30;;;0.80;99.90;;;;;;8333630;28;20259;-65
2022/03/05 07:22:31;;;;;;;25.87;13.23;;;0.90;99.90;;;;;;8346617;28;20234;-65
2022/03/05 07:26:32;;;;;;;23.87;14.33;;;0.90;99.90;;;;;;8357871;28;20205;-65
2022/03/05 07:30:33;;;;;;;26.80;15.70;;;1.00;99.90;;;;;;8365795;28;20259;-65
2022/03/05 07:34:33;;;;;;;49.40;31.33;;;1.20;99.90;;;;;;8367136;28;20213;-65
2022/03/05 07:38:34;;;;;;;25.73;13.33;;;1.50;99.90;;;;;;8349351;28;20208;-65
2022/03/05 07:42:35;;;;;;;40.50;20.40;;;1.60;99.90;;;;;;8347098;28;20225;-65
2022/03/05 07:46:37;;;;;;;35.70;18.63;;;1.70;99.90;;;;;;8347373;28;20247;-65
2022/03/05 07:50:38;;;;;;;36.93;18.60;;;1.80;1.00;;;;;;8345052;28;20248;-65
2022/03/05 07:54:39;;;;;;;34.43;15.90;;;1.90;99.90;;;;;;8339504;28;20206;-65
2022/03/05 07:58:39;;;;;;;15.07;8.80;;;2.00;1.00;;;;;;8364061;28;20214;-64
2022/03/05 08:02:41;;;;;;;18.70;11.17;;;2.10;99.90;;;;;;8345588;28;20225;-64
2022/03/05 08:06:41;;;;;;;18.77;10.23;;;2.30;99.90;;;;;;8346580;28;20205;-64
2022/03/05 08:10:42;;;;;;;12.20;7.33;;;2.50;1.00;;;;;;8365008;28;20229;-63
2022/03/05 08:14:44;;;;;;;13.67;9.50;;;2.50;99.90;;;;;;8346629;28;20197;-64
2022/03/05 08:18:45;;;;;;;27.43;11.33;;;2.40;1.00;;;;;;8345242;28;20206;-64
2022/03/05 08:22:46;;;;;;;13.00;6.83;;;2.40;99.90;;;;;;8344730;28;20213;-64
2022/03/05 08:26:47;;;;;;;11.90;7.17;;;2.50;99.90;;;;;;8345631;28;20251;-65
2022/03/05 08:30:48;;;;;;;10.03;6.70;;;2.60;1.10;;;;;;8346521;28;20206;-65
2022/03/05 08:34:49;;;;;;;13.43;6.40;;;2.50;99.90;;;;;;8345140;28;20232;-65
2022/03/05 08:38:50;;;;;;;9.30;4.47;;;2.50;99.90;;;;;;8344784;28;20293;-65
2022/03/05 08:42:51;;;;;;;7.57;4.57;;;2.70;1.00;;;;;;8345191;28;20221;-65
2022/03/05 08:46:52;;;;;;;7.60;4.27;;;3.20;99.90;;;;;;8346072;28;20289;-65
2022/03/05 08:50:53;;;;;;;6.87;4.97;;;3.40;99.90;;;;;;8348234;28;20215;-65
2022/03/05 08:54:54;;;;;;;5.97;3.27;;;3.80;10.00;;;;;;8347555;28;20226;-65
2022/03/05 08:58:54;;;;;;;4.87;3.27;;;4.10;1.00;;;;;;8345867;28;20214;-65
2022/03/05 09:02:55;;;;;;;5.73;3.97;;;3.90;99.90;;;;;;8364079;28;20623;-65
2022/03/05 09:06:56;;;;;;;5.97;3.97;;;3.90;99.90;;;;;;8345976;28;20202;-65
2022/03/05 09:10:57;;;;;;;6.67;4.10;;;3.70;99.90;;;;;;8362781;28;20251;-64
2022/03/05 09:14:58;;;;;;;12.10;6.83;;;3.70;3.60;;;;;;8341696;28;20207;-65
2022/03/05 09:18:59;;;;;;;15.70;9.80;;;3.90;53.50;;;;;;8344664;28;20277;-65
2022/03/05 09:23:01;;;;;;;11.43;6.67;;;4.20;43.20;;;;;;8357979;28;20210;-64
2022/03/05 09:27:02;;;;;;;16.17;8.60;;;4.50;1.00;;;;;;8343407;28;20202;-64
2022/03/05 09:31:04;;;;;;;8.83;4.87;;;4.70;1.00;;;;;;8358475;28;20296;-65
2022/03/05 09:35:06;;;;;;;16.07;9.93;;;4.70;1.00;;;;;;8338613;28;20218;-64
2022/03/05 09:39:08;;;;;;;26.67;16.20;;;4.70;1.00;;;;;;8360204;28;20211;-65
2022/03/05 09:43:10;;;;;;;26.70;16.57;;;4.80;1.00;;;;;;8343249;28;20209;-64
2022/03/05 09:47:11;;;;;;;14.97;8.27;;;5.00;1.00;;;;;;8331771;28;20300;-63
2022/03/05 09:51:12;;;;;;;60.93;34.43;;;5.20;99.90;;;;;;8352227;28;20223;-63
2022/03/05 09:55:13;;;;;;;27.27;14.00;;;5.30;99.90;;;;;;8355473;28;20210;-64
2022/03/05 09:59:14;;;;;;;13.83;6.40;;;5.30;99.90;;;;;;8333863;28;20318;-64
2022/03/05 10:03:15;;;;;;;6.67;3.33;;;5.20;99.90;;;;;;8333824;28;20234;-63
2022/03/05 10:07:18;;;;;;;5.10;2.87;;;5.20;99.90;;;;;;8347485;28;20196;-67
2022/03/05 10:11:20;;;;;;;5.10;2.57;;;5.20;99.90;;;;;;8325970;28;20264;-65
2022/03/05 10:15:21;;;;;;;7.67;3.77;;;5.10;99.90;;;;;;8340218;28;20245;-65
2022/03/05 10:19:23;;;;;;;13.77;6.70;;;5.10;99.90;;;;;;8360442;28;20258;-64
2022/03/05 10:23:24;;;;;;;6.37;4.03;;;5.30;99.90;;;;;;8339220;28;20206;-65
2022/03/05 10:27:30;;;;;;;17.00;8.27;;;5.50;99.90;;;;;;8331632;28;20202;-62
2022/03/05 10:31:31;;;;;;;8.47;4.10;;;5.60;99.90;;;;;;8353173;28;20277;-63
2022/03/05 10:35:32;;;;;;;14.77;7.13;;;5.60;99.90;;;;;;8353651;28;20210;-63
2022/03/05 10:39:33;;;;;;;9.47;4.97;;;5.40;99.90;;;;;;8351986;28;20226;-65
2022/03/05 10:43:34;;;;;;;13.60;6.97;;;5.30;99.90;;;;;;8325451;28;20207;-63
2022/03/05 10:47:43;;;;;;;10.17;6.30;;;5.20;99.90;;;;;;8334525;28;20205;-64
2022/03/05 10:51:49;;;;;;;12.03;6.13;;;5.00;99.90;;;;;;8349395;28;20233;-64
2022/03/05 10:55:50;;;;;;;14.53;6.83;;;4.90;99.90;;;;;;8341606;28;20242;-63
2022/03/05 11:00:05;;;;;;;6.03;3.63;;;5.00;99.90;;;;;;8354215;28;20736;-63
2022/03/05 11:04:08;;;;;;;11.90;6.03;;;5.20;99.90;;;;;;8332386;28;20214;-63
2022/03/05 11:08:09;;;;;;;8.63;5.77;;;5.60;99.90;;;;;;8348620;28;20316;-63
2022/03/05 11:12:18;;;;;;;19.03;10.97;;;5.50;99.90;;;;;;8348831;28;20351;-64
2022/03/05 11:16:21;;;;;;;5.00;3.30;;;5.40;99.90;;;;;;8345002;28;20204;-63
2022/03/05 11:20:22;;;;;;;8.63;5.67;;;4.90;99.90;;;;;;8359484;28;20215;-64
2022/03/05 11:24:24;;;;;;;13.93;7.60;;;4.80;99.90;;;;;;8354507;28;20204;-63
2022/03/05 11:28:39;;;;;;;5.10;2.87;;;5.00;99.90;;;;;;8343351;28;20254;-63
2022/03/05 11:32:40;;;;;;;5.33;4.03;;;5.30;99.90;;;;;;8338077;28;20205;-64
2022/03/05 11:36:42;;;;;;;10.93;5.27;;;5.60;99.90;;;;;;8327365;28;20536;-64
2022/03/05 11:40:43;;;;;;;13.60;7.27;;;5.60;99.90;;;;;;8354180;28;20316;-63
2022/03/05 11:44:45;;;;;;;13.53;7.73;;;5.60;99.90;;;;;;8343692;28;20249;-63
2022/03/05 11:49:09;;;;;;;11.60;6.30;;;5.30;99.90;;;;;;8328849;28;20199;-64
2022/03/05 11:53:13;;;;;;;38.80;16.53;;;5.10;99.90;;;;;;8337083;28;20255;-63
2022/03/05 11:57:14;;;;;;;7.97;5.60;;;4.80;99.90;;;;;;8339031;28;20208;-63
2022/03/05 12:01:33;;;;;;;13.43;5.40;;;4.50;99.90;;;;;;8338274;28;20252;-63
2022/03/05 12:05:41;;;;;;;9.73;5.83;;;4.50;99.90;;;;;;8330737;28;20215;-64
2022/03/05 12:09:45;;;;;;;10.57;4.70;;;4.50;99.90;;;;;;8339896;28;20217;-64
2022/03/05 12:13:52;;;;;;;12.50;7.07;;;4.60;99.90;;;;;;8356549;28;20219;-64
2022/03/05 12:17:53;;;;;;;11.67;5.80;;;4.60;99.90;;;;;;8341591;28;20211;-64
2022/03/05 12:21:54;;;;;;;8.73;4.87;;;4.80;99.90;;;;;;8334077;28;20248;-63
2022/03/05 12:26:01;;;;;;;6.33;3.40;;;4.90;99.90;;;;;;8332054;28;20212;-64
2022/03/05 12:30:04;;;;;;;6.10;3.50;;;4.80;99.90;;;;;;8330097;28;20205;-63
2022/03/05 12:34:05;;;;;;;18.87;9.27;;;4.70;99.90;;;;;;8337799;28;20260;-64
2022/03/05 12:38:07;;;;;;;8.17;5.30;;;4.60;99.90;;;;;;8346707;28;20236;-65
2022/03/05 12:42:08;;;;;;;13.97;7.97;;;4.50;99.90;;;;;;8348873;28;20228;-64
2022/03/05 12:46:09;;;;;;;7.37;4.23;;;4.60;99.90;;;;;;8353653;28;20203;-65
2022/03/05 12:50:32;;;;;;;4.20;3.03;;;4.40;99.90;;;;;;8362131;28;20202;-65
2022/03/05 12:54:33;;;;;;;4.37;3.17;;;4.20;99.90;;;;;;8335688;28;20210;-65
2022/03/05 12:58:40;;;;;;;14.07;2.53;;;4.00;99.90;;;;;;8362708;28;20264;-65
2022/03/05 13:02:40;;;;;;;5.87;3.97;;;4.10;99.90;;;;;;8329724;28;20218;-65
2022/03/05 13:06:45;;;;;;;10.50;4.70;;;4.00;99.90;;;;;;8341709;28;20205;-65
2022/03/05 13:10:47;;;;;;;6.67;4.27;;;4.20;99.90;;;;;;8343923;28;20197;-63
2022/03/05 13:14:48;;;;;;;4.87;3.47;;;4.50;99.90;;;;;;8331882;28;20222;-65
2022/03/05 13:19:03;;;;;;;6.47;2.67;;;4.80;99.90;;;;;;8363529;28;20208;-65
2022/03/05 13:23:05;;;;;;;2.43;2.00;;;4.70;99.90;;;;;;8355875;28;20215;-65
2022/03/05 13:27:06;;;;;;;2.60;1.93;;;4.70;83.70;;;;;;8344536;28;20196;-65
2022/03/05 13:31:07;;;;;;;5.60;2.53;;;4.60;93.00;;;;;;8346540;28;20283;-66
2022/03/05 13:35:08;;;;;;;4.00;2.40;;;5.00;70.30;;;;;;8362704;28;20204;-64
2022/03/05 13:39:14;;;;;;;8.50;4.70;;;5.10;91.30;;;;;;8337460;28;20205;-63
2022/03/05 13:43:23;;;;;;;3.33;2.43;;;5.40;33.60;;;;;;8355946;28;20225;-62
2022/03/05 13:47:25;;;;;;;4.60;2.70;;;5.50;5.10;;;;;;8337350;28;20198;-63
2022/03/05 13:51:31;;;;;;;4.90;2.63;;;5.10;1.00;;;;;;8346185;28;20216;-65
2022/03/05 13:55:32;;;;;;;5.90;3.77;;;4.60;17.60;;;;;;8345230;28;20222;-65
2022/03/05 13:59:43;;;;;;;2.67;1.90;;;4.20;34.50;;;;;;8361384;28;20215;-66
2022/03/05 14:04:13;;;;;;;2.93;2.07;;;4.00;11.00;;;;;;8348895;28;20245;-65
2022/03/05 14:08:17;;;;;;;3.23;1.40;;;3.90;29.10;;;;;;8347232;28;20236;-65
2022/03/05 14:12:23;;;;;;;1.20;1.10;;;4.10;1.00;;;;;;8349560;28;20211;-65
2022/03/05 14:16:36;;;;;;;2.10;1.43;;;4.60;5.00;;;;;;8366813;28;20280;-65
2022/03/05 14:20:48;;;;;;;2.60;1.60;;;5.00;1.00;;;;;;8341011;28;20216;-65
2022/03/05 14:24:54;;;;;;;1.77;1.50;;;5.10;1.00;;;;;;8367740;28;20265;-65
2022/03/05 14:28:55;;;;;;;2.20;1.63;;;5.10;1.00;;;;;;8349997;28;20268;-65
2022/03/05 14:32:56;;;;;;;3.40;2.13;;;5.10;1.00;;;;;;8351088;28;20280;-65
2022/03/05 14:36:57;;;;;;;5.07;3.30;;;4.70;1.00;;;;;;8337600;28;20251;-65
2022/03/05 14:40:59;;;;;;;15.33;7.83;;;4.20;74.00;;;;;;8342969;28;20213;-65
2022/03/05 14:45:01;;;;;;;15.37;9.20;;;3.80;99.90;;;;;;8343891;28;20215;-65
2022/03/05 14:49:02;;;;;;;15.50;9.57;;;3.80;95.60;;;;;;8345010;28;20225;-65
2022/03/05 14:53:04;;;;;;;7.77;3.80;;;3.90;94.00;;;;;;8345353;28;20217;-65
2022/03/05 14:57:05;;;;;;;13.37;6.33;;;3.90;99.90;;;;;;8346399;28;20204;-65
2022/03/05 15:01:06;;;;;;;21.20;9.50;;;3.80;99.90;;;;;;8344161;28;20226;-65
2022/03/05 15:05:09;;;;;;;26.67;10.87;;;3.80;99.90;;;;;;8363652;28;20271;-65
2022/03/05 15:09:10;;;;;;;9.30;5.70;;;3.90;99.90;;;;;;8348050;28;20209;-65
2022/03/05 15:13:11;;;;;;;9.77;4.67;;;3.80;97.90;;;;;;8347883;28;20194;-65
2022/03/05 15:17:12;;;;;;;8.50;5.00;;;3.60;99.90;;;;;;8347261;28;20206;-65
2022/03/05 15:21:13;;;;;;;22.80;12.40;;;3.60;99.90;;;;;;8346335;28;20295;-65
2022/03/05 15:25:13;;;;;;;41.73;17.80;;;3.70;99.90;;;;;;8363242;28;20335;-65
2022/03/05 15:29:14;;;;;;;22.50;11.90;;;3.70;99.90;;;;;;8341490;28;20205;-65
2022/03/05 15:33:15;;;;;;;33.53;15.17;;;3.70;99.90;;;;;;8342688;28;20202;-65
2022/03/05 15:37:16;;;;;;;59.20;25.93;;;3.70;99.30;;;;;;8345706;28;20230;-65
2022/03/05 15:41:17;;;;;;;32.90;16.17;;;3.70;99.90;;;;;;8338594;28;20218;-65
2022/03/05 15:45:19;;;;;;;38.50;17.73;;;3.60;99.90;;;;;;8340703;28;20202;-65
2022/03/05 15:49:21;;;;;;;28.60;12.53;;;3.60;99.90;;;;;;8319954;28;20221;-65
2022/03/05 15:53:22;;;;;;;33.20;15.23;;;3.50;99.90;;;;;;8343593;28;20202;-65
2022/03/05 15:57:23;;;;;;;32.60;14.87;;;3.40;99.90;;;;;;8336700;28;20222;-64
2022/03/05 16:01:23;;;;;;;30.23;13.87;;;3.30;99.90;;;;;;8339612;28;20228;-65
2022/03/05 16:05:24;;;;;;;52.27;22.93;;;3.20;99.90;;;;;;8344018;28;20217;-65
2022/03/05 16:09:25;;;;;;;72.87;32.57;;;3.20;99.90;;;;;;8361669;28;20415;-65
2022/03/05 16:13:27;;;;;;;39.43;18.10;;;3.00;99.90;;;;;;8345603;28;20229;-65
2022/03/05 16:17:28;;;;;;;62.97;29.00;;;2.90;99.90;;;;;;8345533;28;20264;-65
2022/03/05 16:21:29;;;;;;;43.20;22.80;;;2.80;99.90;;;;;;8337515;28;20297;-65
2022/03/05 16:25:30;;;;;;;43.73;22.17;;;2.80;99.90;;;;;;8363023;28;20216;-65
2022/03/05 16:29:30;;;;;;;36.67;21.03;;;2.70;99.90;;;;;;8345016;28;20197;-65
2022/03/05 16:33:33;;;;;;;62.47;34.67;;;2.70;99.90;;;;;;8344997;28;20201;-65
2022/03/05 16:37:34;;;;;;;60.97;35.47;;;2.60;99.90;;;;;;8360739;28;20213;-65
2022/03/05 16:41:35;;;;;;;92.03;43.27;;;2.60;99.90;;;;;;8362338;28;20221;-65
2022/03/05 16:45:39;;;;;;;118.60;45.87;;;2.50;99.90;;;;;;8344400;28;20276;-65
2022/03/05 16:49:41;;;;;;;128.57;47.80;;;2.50;99.90;;;;;;8340667;28;20201;-65
2022/03/05 16:53:42;;;;;;;159.63;67.87;;;2.40;99.90;;;;;;8362126;28;20201;-64
2022/03/05 16:57:43;;;;;;;133.53;55.53;;;2.30;99.90;;;;;;8344261;28;20503;-65
2022/03/05 17:01:44;;;;;;;117.93;52.70;;;2.30;99.90;;;;;;8341803;28;20230;-65
2022/03/05 17:05:45;;;;;;;104.43;49.83;;;2.20;99.90;;;;;;8339821;28;20240;-66
2022/03/05 17:09:46;;;;;;;89.77;41.87;;;2.20;99.90;;;;;;8329512;28;20209;-66
2022/03/05 17:13:47;;;;;;;208.73;81.70;;;2.20;99.90;;;;;;8340873;28;20212;-66
2022/03/05 17:17:49;;;;;;;184.27;74.73;;;2.10;99.90;;;;;;8342539;28;20208;-66
2022/03/05 17:21:49;;;;;;;153.23;59.03;;;2.10;1.00;;;;;;8344406;28;20221;-66
2022/03/05 17:25:50;;;;;;;84.23;35.47;;;2.00;1.00;;;;;;8355365;28;20202;-66
2022/03/05 17:29:51;;;;;;;43.17;21.47;;;1.90;1.00;;;;;;8361293;28;20202;-66
2022/03/05 17:33:55;;;;;;;35.73;15.00;;;1.90;1.00;;;;;;8344357;28;20210;-66
2022/03/05 17:37:56;;;;;;;26.53;13.30;;;1.80;1.00;;;;;;8343008;28;20217;-66
2022/03/05 17:42:00;;;;;;;24.70;11.03;;;1.70;53.60;;;;;;8343321;28;20638;-66
2022/03/05 17:46:01;;;;;;;19.10;11.13;;;1.70;99.90;;;;;;8341677;28;20213;-65
2022/03/05 17:50:02;;;;;;;110.10;37.00;;;1.60;99.90;;;;;;8338701;28;20207;-66
2022/03/05 17:54:04;;;;;;;86.20;30.80;;;1.60;62.90;;;;;;8340715;28;20209;-66
2022/03/05 17:58:05;;;;;;;65.13;33.13;;;1.60;19.40;;;;;;8351971;28;20269;-66
2022/03/05 18:02:06;;;;;;;45.97;19.30;;;1.60;1.00;;;;;;8332162;28;20252;-65
2022/03/05 18:06:10;;;;;;;41.07;17.70;;;1.60;1.00;;;;;;8350095;28;20212;-66
2022/03/05 18:10:11;;;;;;;30.67;16.07;;;1.70;1.00;;;;;;8351422;28;20213;-66
2022/03/05 18:14:12;;;;;;;20.13;10.27;;;1.70;99.90;;;;;;8343719;28;20267;-66
2022/03/05 18:18:13;;;;;;;30.03;15.20;;;1.60;1.00;;;;;;8338244;28;20197;-66
2022/03/05 18:22:14;;;;;;;23.47;10.23;;;1.50;1.00;;;;;;8342459;28;20253;-63
2022/03/05 18:26:15;;;;;;;29.73;13.03;;;1.50;1.00;;;;;;8354787;28;20202;-64
2022/03/05 18:30:16;;;;;;;23.80;11.53;;;1.50;1.00;;;;;;8334563;28;20198;-64
2022/03/05 18:34:17;;;;;;;31.53;13.87;;;1.40;1.00;;;;;;8338729;28;20220;-64
2022/03/05 18:38:18;;;;;;;56.03;19.97;;;1.30;1.00;;;;;;8345673;28;20277;-64
2022/03/05 18:42:19;;;;;;;47.00;18.30;;;1.20;1.00;;;;;;8363328;28;20222;-64
2022/03/05 18:46:20;;;;;;;44.17;15.17;;;1.10;1.00;;;;;;8334964;28;20216;-64
2022/03/05 18:50:21;;;;;;;22.63;10.87;;;1.00;1.00;;;;;;8346583;28;20210;-65
2022/03/05 18:54:22;;;;;;;22.33;9.97;;;0.90;1.00;;;;;;8347069;28;20206;-64
2022/03/05 18:58:25;;;;;;;15.30;7.03;;;0.90;1.00;;;;;;8346614;28;20205;-64
2022/03/05 19:02:26;;;;;;;12.53;7.70;;;0.80;1.00;;;;;;8346795;28;20221;-64
2022/03/05 19:06:27;;;;;;;27.10;11.37;;;0.80;1.00;;;;;;8347577;28;20296;-64
2022/03/05 19:10:28;;;;;;;35.07;12.47;;;0.70;1.00;;;;;;8347519;28;20198;-64
2022/03/05 19:14:29;;;;;;;55.63;20.03;;;0.70;1.00;;;;;;8348439;28;20216;-64
2022/03/05 19:18:30;;;;;;;81.53;26.80;;;0.70;1.00;;;;;;8343238;28;20201;-64
2022/03/05 19:22:32;;;;;;;35.63;15.60;;;0.70;1.00;;;;;;8352096;28;20218;-64
2022/03/05 19:26:33;;;;;;;17.63;9.90;;;0.70;1.00;;;;;;8346649;28;20232;-64
2022/03/05 19:30:34;;;;;;;12.83;7.00;;;0.70;1.00;;;;;;8344364;28;20205;-64
2022/03/05 19:34:35;;;;;;;17.70;7.50;;;0.60;1.00;;;;;;8337811;28;20251;-64
2022/03/05 19:38:36;;;;;;;13.27;6.53;;;0.60;1.00;;;;;;8364197;28;20202;-65
2022/03/05 19:42:37;;;;;;;12.63;6.57;;;0.60;1.00;;;;;;8344380;28;20304;-64
2022/03/05 19:46:38;;;;;;;11.10;6.20;;;0.60;1.00;;;;;;8340543;28;20224;-64
2022/03/05 19:50:40;;;;;;;14.37;6.80;;;0.50;1.00;;;;;;8337512;28;20259;-64
2022/03/05 19:54:41;;;;;;;33.13;13.63;;;0.60;1.00;;;;;;8346831;28;20277;-64
2022/03/05 19:58:42;;;;;;;31.17;14.27;;;0.60;1.00;;;;;;8343467;28;20218;-64
2022/03/05 20:02:43;;;;;;;38.10;18.70;;;0.60;1.00;;;;;;8338938;28;20225;-64
2022/03/05 20:06:44;;;;;;;42.17;19.60;;;0.50;1.00;;;;;;8337859;28;20208;-64
2022/03/05 20:10:45;;;;;;;33.53;15.90;;;0.50;1.00;;;;;;8340706;28;20210;-64
2022/03/05 20:14:47;;;;;;;42.33;20.60;;;0.50;1.00;;;;;;8347603;28;20198;-64
2022/03/05 20:18:48;;;;;;;49.77;20.80;;;0.50;1.00;;;;;;8344948;28;20300;-64
2022/03/05 20:22:49;;;;;;;71.17;28.13;;;0.50;1.00;;;;;;8346115;28;20221;-64
2022/03/05 20:26:50;;;;;;;61.57;23.27;;;0.40;1.00;;;;;;8346446;28;20209;-64
2022/03/05 20:30:51;;;;;;;31.20;13.27;;;0.40;1.00;;;;;;8345785;28;20229;-63
2022/03/05 20:34:51;;;;;;;15.80;7.70;;;0.30;18.80;;;;;;8345037;28;20204;-65
2022/03/05 20:38:55;;;;;;;15.43;8.57;;;0.30;26.30;;;;;;8345244;28;20244;-64
2022/03/05 20:42:57;;;;;;;12.60;6.60;;;0.20;31.90;;;;;;8344002;28;20238;-65
2022/03/05 20:46:59;;;;;;;12.93;6.53;;;0.20;43.10;;;;;;8361064;28;20232;-64
2022/03/05 20:51:00;;;;;;;10.20;6.27;;;0.10;73.70;;;;;;8343704;28;20205;-64
2022/03/05 20:55:02;;;;;;;11.37;5.23;;;0.10;77.30;;;;;;8362776;28;20288;-64